sensor_id;sensor_type;location;lat;lon;timestamp;P1;durP1;ratioP1;P2;durP2;ratioP2
75772;SDS011;64381;0.000;0.000;2023-02-28T00:00:18;5.85;;;5.07;;
75772;SDS011;64381;0.000;0.000;2023-02-28T00:02:44;5.85;;;4.95;;
75772;SDS011;64381;0.000;0.000;2023-02-28T00:05:10;5.55;;;4.80;;
75772;SDS011;64381;0.000;0.000;2023-02-28T00:07:37;6.00;;;4.87;;
75772;SDS011;64381;0.000;0.000;2023-02-28T00:10:03;5.32;;;4.72;;
75772;SDS011;64381;0.000;0.000;2023-02-28T00:12:33;5.63;;;5.03;;
75772;SDS011;64381;0.000;0.000;2023-02-28T00:14:59;6.47;;;4.80;;
75772;SDS011;64381;0.000;0.000;2023-02-28T00:17:25;5.78;;;4.78;;
75772;SDS011;64381;0.000;0.000;2023-02-28T00:19:50;5.33;;;4.60;;
75772;SDS011;64381;0.000;0.000;2023-02-28T00:22:21;6.80;;;4.78;;
75772;SDS011;64381;0.000;0.000;2023-02-28T00:24:46;5.70;;;5.00;;
75772;SDS011;64381;0.000;0.000;2023-02-28T00:27:12;5.85;;;4.82;;
75772;SDS011;64381;0.000;0.000;2023-02-28T00:29:37;5.70;;;4.80;;
75772;SDS011;64381;0.000;0.000;2023-02-28T00:32:02;5.50;;;4.57;;
75772;SDS011;64381;0.000;0.000;2023-02-28T00:34:28;5.95;;;4.93;;
75772;SDS011;64381;0.000;0.000;2023-02-28T00:36:53;6.40;;;4.90;;
75772;SDS011;64381;0.000;0.000;2023-02-28T00:39:19;5.30;;;4.80;;
75772;SDS011;64381;0.000;0.000;2023-02-28T00:41:44;5.87;;;4.67;;
75772;SDS011;64381;0.000;0.000;2023-02-28T00:44:09;5.50;;;4.80;;
75772;SDS011;64381;0.000;0.000;2023-02-28T00:46:34;5.23;;;4.70;;
75772;SDS011;64381;0.000;0.000;2023-02-28T00:48:59;5.70;;;4.87;;
75772;SDS011;64381;0.000;0.000;2023-02-28T00:51:25;5.60;;;4.77;;
75772;SDS011;64381;0.000;0.000;2023-02-28T00:53:50;6.20;;;5.07;;
75772;SDS011;64381;0.000;0.000;2023-02-28T00:56:15;6.00;;;4.77;;
75772;SDS011;64381;0.000;0.000;2023-02-28T00:58:40;5.97;;;4.90;;
75772;SDS011;64381;0.000;0.000;2023-02-28T01:01:05;6.70;;;5.03;;
75772;SDS011;64381;0.000;0.000;2023-02-28T01:03:31;5.63;;;4.50;;
75772;SDS011;64381;0.000;0.000;2023-02-28T01:05:56;5.50;;;4.73;;
75772;SDS011;64381;0.000;0.000;2023-02-28T01:08:21;5.50;;;4.90;;
75772;SDS011;64381;0.000;0.000;2023-02-28T01:10:47;5.37;;;4.63;;
75772;SDS011;64381;0.000;0.000;2023-02-28T01:13:13;5.50;;;4.82;;
75772;SDS011;64381;0.000;0.000;2023-02-28T01:15:39;4.93;;;4.43;;
75772;SDS011;64381;0.000;0.000;2023-02-28T01:18:08;6.30;;;4.90;;
75772;SDS011;64381;0.000;0.000;2023-02-28T01:20:33;5.10;;;4.50;;
75772;SDS011;64381;0.000;0.000;2023-02-28T01:23:01;5.43;;;4.72;;
75772;SDS011;64381;0.000;0.000;2023-02-28T01:25:26;5.63;;;4.60;;
75772;SDS011;64381;0.000;0.000;2023-02-28T01:27:51;5.67;;;4.80;;
75772;SDS011;64381;0.000;0.000;2023-02-28T01:30:17;5.70;;;4.33;;
75772;SDS011;64381;0.000;0.000;2023-02-28T01:32:42;6.13;;;4.77;;
75772;SDS011;64381;0.000;0.000;2023-02-28T01:35:07;5.43;;;4.73;;
75772;SDS011;64381;0.000;0.000;2023-02-28T01:37:33;5.30;;;4.60;;
75772;SDS011;64381;0.000;0.000;2023-02-28T01:39:58;5.70;;;4.63;;
75772;SDS011;64381;0.000;0.000;2023-02-28T01:42:23;6.17;;;4.87;;
75772;SDS011;64381;0.000;0.000;2023-02-28T01:47:41;5.45;;;4.88;;
75772;SDS011;64381;0.000;0.000;2023-02-28T01:50:09;6.10;;;5.15;;
75772;SDS011;64381;0.000;0.000;2023-02-28T01:52:39;5.03;;;4.35;;
75772;SDS011;64381;0.000;0.000;2023-02-28T01:55:05;5.40;;;4.55;;
75772;SDS011;64381;0.000;0.000;2023-02-28T01:57:38;5.63;;;4.80;;
75772;SDS011;64381;0.000;0.000;2023-02-28T02:00:12;5.60;;;4.90;;
75772;SDS011;64381;0.000;0.000;2023-02-28T02:02:40;5.82;;;4.57;;
75772;SDS011;64381;0.000;0.000;2023-02-28T02:05:09;5.45;;;4.70;;
75772;SDS011;64381;0.000;0.000;2023-02-28T02:07:41;5.35;;;4.45;;
75772;SDS011;64381;0.000;0.000;2023-02-28T02:10:12;6.20;;;4.80;;
75772;SDS011;64381;0.000;0.000;2023-02-28T02:15:35;5.63;;;4.53;;
75772;SDS011;64381;0.000;0.000;2023-02-28T02:29:40;5.00;;;4.50;;
75772;SDS011;64381;0.000;0.000;2023-02-28T02:37:50;5.45;;;4.82;;
75772;SDS011;64381;0.000;0.000;2023-02-28T02:40:25;6.30;;;4.83;;
75772;SDS011;64381;0.000;0.000;2023-02-28T02:42:57;4.97;;;4.35;;
75772;SDS011;64381;0.000;0.000;2023-02-28T02:45:45;5.50;;;4.90;;
75772;SDS011;64381;0.000;0.000;2023-02-28T02:48:16;5.10;;;4.35;;
75772;SDS011;64381;0.000;0.000;2023-02-28T02:51:06;5.25;;;4.70;;
75772;SDS011;64381;0.000;0.000;2023-02-28T02:53:33;5.37;;;4.53;;
75772;SDS011;64381;0.000;0.000;2023-02-28T02:56:02;5.10;;;4.32;;
75772;SDS011;64381;0.000;0.000;2023-02-28T02:58:30;5.22;;;4.65;;
75772;SDS011;64381;0.000;0.000;2023-02-28T03:01:00;4.95;;;4.13;;
75772;SDS011;64381;0.000;0.000;2023-02-28T03:03:27;5.03;;;4.53;;
75772;SDS011;64381;0.000;0.000;2023-02-28T03:05:55;5.73;;;4.50;;
75772;SDS011;64381;0.000;0.000;2023-02-28T03:08:22;5.25;;;4.72;;
75772;SDS011;64381;0.000;0.000;2023-02-28T03:10:50;5.50;;;4.50;;
75772;SDS011;64381;0.000;0.000;2023-02-28T03:13:38;5.35;;;4.68;;
75772;SDS011;64381;0.000;0.000;2023-02-28T03:19:00;5.70;;;4.30;;
75772;SDS011;64381;0.000;0.000;2023-02-28T03:30:06;5.65;;;4.40;;
75772;SDS011;64381;0.000;0.000;2023-02-28T03:35:16;5.05;;;4.30;;
75772;SDS011;64381;0.000;0.000;2023-02-28T03:37:45;5.33;;;4.57;;
75772;SDS011;64381;0.000;0.000;2023-02-28T03:40:12;5.05;;;4.13;;
75772;SDS011;64381;0.000;0.000;2023-02-28T03:42:42;4.65;;;4.07;;
75772;SDS011;64381;0.000;0.000;2023-02-28T03:45:19;5.22;;;4.20;;
75772;SDS011;64381;0.000;0.000;2023-02-28T03:47:57;5.10;;;4.38;;
75772;SDS011;64381;0.000;0.000;2023-02-28T03:53:13;5.70;;;4.50;;
75772;SDS011;64381;0.000;0.000;2023-02-28T03:55:44;4.80;;;4.10;;
75772;SDS011;64381;0.000;0.000;2023-02-28T04:01:09;5.03;;;4.20;;
75772;SDS011;64381;0.000;0.000;2023-02-28T04:03:40;4.40;;;4.00;;
75772;SDS011;64381;0.000;0.000;2023-02-28T04:06:12;5.53;;;4.40;;
75772;SDS011;64381;0.000;0.000;2023-02-28T04:08:41;5.05;;;4.18;;
75772;SDS011;64381;0.000;0.000;2023-02-28T04:11:11;5.13;;;4.25;;
75772;SDS011;64381;0.000;0.000;2023-02-28T04:13:40;5.10;;;4.10;;
75772;SDS011;64381;0.000;0.000;2023-02-28T04:16:08;5.25;;;4.40;;
75772;SDS011;64381;0.000;0.000;2023-02-28T04:18:34;5.10;;;3.95;;
75772;SDS011;64381;0.000;0.000;2023-02-28T04:20:59;5.53;;;4.27;;
75772;SDS011;64381;0.000;0.000;2023-02-28T04:23:25;4.72;;;4.10;;
75772;SDS011;64381;0.000;0.000;2023-02-28T04:25:50;5.20;;;3.80;;
75772;SDS011;64381;0.000;0.000;2023-02-28T04:28:20;4.97;;;3.88;;
75772;SDS011;64381;0.000;0.000;2023-02-28T04:30:45;4.97;;;4.27;;
75772;SDS011;64381;0.000;0.000;2023-02-28T04:33:10;5.00;;;4.37;;
75772;SDS011;64381;0.000;0.000;2023-02-28T04:35:35;4.70;;;3.97;;
75772;SDS011;64381;0.000;0.000;2023-02-28T04:38:00;4.70;;;3.90;;
75772;SDS011;64381;0.000;0.000;2023-02-28T04:40:26;5.00;;;4.03;;
75772;SDS011;64381;0.000;0.000;2023-02-28T04:42:51;5.03;;;4.03;;
75772;SDS011;64381;0.000;0.000;2023-02-28T04:45:16;4.80;;;4.07;;
75772;SDS011;64381;0.000;0.000;2023-02-28T04:47:41;4.97;;;4.17;;
75772;SDS011;64381;0.000;0.000;2023-02-28T04:50:07;5.30;;;4.13;;
75772;SDS011;64381;0.000;0.000;2023-02-28T04:52:32;4.70;;;3.85;;
75772;SDS011;64381;0.000;0.000;2023-02-28T04:54:58;4.33;;;3.70;;
75772;SDS011;64381;0.000;0.000;2023-02-28T04:57:23;5.17;;;4.10;;
75772;SDS011;64381;0.000;0.000;2023-02-28T04:59:48;5.00;;;4.00;;
75772;SDS011;64381;0.000;0.000;2023-02-28T05:02:13;4.87;;;4.00;;
75772;SDS011;64381;0.000;0.000;2023-02-28T05:04:39;4.80;;;4.00;;
75772;SDS011;64381;0.000;0.000;2023-02-28T05:07:04;5.57;;;4.13;;
75772;SDS011;64381;0.000;0.000;2023-02-28T05:09:29;4.80;;;4.20;;
75772;SDS011;64381;0.000;0.000;2023-02-28T05:11:54;4.70;;;3.83;;
75772;SDS011;64381;0.000;0.000;2023-02-28T05:14:20;4.78;;;3.88;;
75772;SDS011;64381;0.000;0.000;2023-02-28T05:16:46;4.95;;;3.90;;
75772;SDS011;64381;0.000;0.000;2023-02-28T05:19:11;4.57;;;3.75;;
75772;SDS011;64381;0.000;0.000;2023-02-28T05:24:04;5.00;;;3.67;;
75772;SDS011;64381;0.000;0.000;2023-02-28T05:26:35;4.93;;;3.83;;
75772;SDS011;64381;0.000;0.000;2023-02-28T05:29:02;5.47;;;3.90;;
75772;SDS011;64381;0.000;0.000;2023-02-28T05:31:27;4.40;;;3.60;;
75772;SDS011;64381;0.000;0.000;2023-02-28T05:33:52;4.93;;;3.80;;
75772;SDS011;64381;0.000;0.000;2023-02-28T05:36:18;5.07;;;3.90;;
75772;SDS011;64381;0.000;0.000;2023-02-28T05:38:45;4.50;;;3.50;;
75772;SDS011;64381;0.000;0.000;2023-02-28T05:41:11;4.90;;;3.70;;
75772;SDS011;64381;0.000;0.000;2023-02-28T05:43:37;4.97;;;3.80;;
75772;SDS011;64381;0.000;0.000;2023-02-28T05:46:03;4.93;;;3.80;;
75772;SDS011;64381;0.000;0.000;2023-02-28T05:48:33;5.00;;;4.00;;
75772;SDS011;64381;0.000;0.000;2023-02-28T05:50:59;4.97;;;3.83;;
75772;SDS011;64381;0.000;0.000;2023-02-28T05:53:24;4.73;;;3.53;;
75772;SDS011;64381;0.000;0.000;2023-02-28T05:55:50;4.87;;;4.00;;
75772;SDS011;64381;0.000;0.000;2023-02-28T05:58:15;4.37;;;3.53;;
75772;SDS011;64381;0.000;0.000;2023-02-28T06:00:40;5.37;;;3.93;;
75772;SDS011;64381;0.000;0.000;2023-02-28T06:03:05;5.00;;;3.87;;
75772;SDS011;64381;0.000;0.000;2023-02-28T06:05:31;4.67;;;3.70;;
75772;SDS011;64381;0.000;0.000;2023-02-28T06:07:56;4.27;;;3.63;;
75772;SDS011;64381;0.000;0.000;2023-02-28T06:10:21;4.70;;;3.80;;
75772;SDS011;64381;0.000;0.000;2023-02-28T06:12:46;4.73;;;3.67;;
75772;SDS011;64381;0.000;0.000;2023-02-28T06:15:12;4.63;;;3.50;;
75772;SDS011;64381;0.000;0.000;2023-02-28T06:17:39;4.82;;;3.75;;
75772;SDS011;64381;0.000;0.000;2023-02-28T06:20:06;4.30;;;3.42;;
75772;SDS011;64381;0.000;0.000;2023-02-28T06:22:31;4.68;;;3.70;;
75772;SDS011;64381;0.000;0.000;2023-02-28T06:24:57;4.93;;;3.60;;
75772;SDS011;64381;0.000;0.000;2023-02-28T06:27:22;5.27;;;3.83;;
75772;SDS011;64381;0.000;0.000;2023-02-28T06:29:47;4.60;;;3.60;;
75772;SDS011;64381;0.000;0.000;2023-02-28T06:32:12;4.37;;;3.43;;
75772;SDS011;64381;0.000;0.000;2023-02-28T06:34:38;4.60;;;3.47;;
75772;SDS011;64381;0.000;0.000;2023-02-28T06:37:03;4.60;;;3.60;;
75772;SDS011;64381;0.000;0.000;2023-02-28T06:39:29;4.87;;;3.60;;
75772;SDS011;64381;0.000;0.000;2023-02-28T06:41:54;4.60;;;3.60;;
75772;SDS011;64381;0.000;0.000;2023-02-28T06:44:20;4.60;;;3.40;;
75772;SDS011;64381;0.000;0.000;2023-02-28T06:46:45;5.90;;;3.50;;
75772;SDS011;64381;0.000;0.000;2023-02-28T06:49:11;4.50;;;3.40;;
75772;SDS011;64381;0.000;0.000;2023-02-28T06:51:38;4.63;;;3.53;;
75772;SDS011;64381;0.000;0.000;2023-02-28T06:54:05;4.57;;;3.55;;
75772;SDS011;64381;0.000;0.000;2023-02-28T06:56:30;4.68;;;3.40;;
75772;SDS011;64381;0.000;0.000;2023-02-28T06:58:56;5.13;;;3.57;;
75772;SDS011;64381;0.000;0.000;2023-02-28T07:01:21;4.57;;;3.70;;
75772;SDS011;64381;0.000;0.000;2023-02-28T07:03:46;4.90;;;3.37;;
75772;SDS011;64381;0.000;0.000;2023-02-28T07:06:12;4.57;;;3.53;;
75772;SDS011;64381;0.000;0.000;2023-02-28T07:08:37;5.05;;;3.42;;
75772;SDS011;64381;0.000;0.000;2023-02-28T07:11:03;4.85;;;3.65;;
75772;SDS011;64381;0.000;0.000;2023-02-28T07:13:28;4.60;;;3.47;;
75772;SDS011;64381;0.000;0.000;2023-02-28T07:15:58;5.83;;;3.30;;
75772;SDS011;64381;0.000;0.000;2023-02-28T07:18:25;5.07;;;3.70;;
75772;SDS011;64381;0.000;0.000;2023-02-28T07:20:51;4.93;;;3.70;;
75772;SDS011;64381;0.000;0.000;2023-02-28T07:23:16;5.35;;;3.50;;
75772;SDS011;64381;0.000;0.000;2023-02-28T07:25:42;5.00;;;3.50;;
75772;SDS011;64381;0.000;0.000;2023-02-28T07:28:07;4.20;;;3.33;;
75772;SDS011;64381;0.000;0.000;2023-02-28T07:30:32;4.77;;;3.30;;
75772;SDS011;64381;0.000;0.000;2023-02-28T07:32:57;4.43;;;3.40;;
75772;SDS011;64381;0.000;0.000;2023-02-28T07:35:23;4.73;;;3.50;;
75772;SDS011;64381;0.000;0.000;2023-02-28T07:37:48;4.38;;;3.13;;
75772;SDS011;64381;0.000;0.000;2023-02-28T07:40:14;4.90;;;3.60;;
75772;SDS011;64381;0.000;0.000;2023-02-28T07:42:40;4.40;;;3.30;;
75772;SDS011;64381;0.000;0.000;2023-02-28T07:45:07;4.43;;;3.47;;
75772;SDS011;64381;0.000;0.000;2023-02-28T07:47:33;4.93;;;3.30;;
75772;SDS011;64381;0.000;0.000;2023-02-28T07:49:58;4.80;;;3.50;;
75772;SDS011;64381;0.000;0.000;2023-02-28T07:52:24;5.03;;;3.40;;
75772;SDS011;64381;0.000;0.000;2023-02-28T07:54:50;4.53;;;3.60;;
75772;SDS011;64381;0.000;0.000;2023-02-28T07:57:15;6.13;;;3.70;;
75772;SDS011;64381;0.000;0.000;2023-02-28T07:59:41;4.73;;;3.20;;
75772;SDS011;64381;0.000;0.000;2023-02-28T08:02:06;4.70;;;3.60;;
75772;SDS011;64381;0.000;0.000;2023-02-28T08:04:32;5.20;;;3.20;;
75772;SDS011;64381;0.000;0.000;2023-02-28T08:06:57;5.15;;;3.60;;
75772;SDS011;64381;0.000;0.000;2023-02-28T08:09:23;4.43;;;3.00;;
75772;SDS011;64381;0.000;0.000;2023-02-28T08:11:48;4.30;;;3.40;;
75772;SDS011;64381;0.000;0.000;2023-02-28T08:14:14;4.37;;;3.27;;
75772;SDS011;64381;0.000;0.000;2023-02-28T08:16:39;4.50;;;3.40;;
75772;SDS011;64381;0.000;0.000;2023-02-28T08:19:04;4.45;;;3.40;;
75772;SDS011;64381;0.000;0.000;2023-02-28T08:21:30;4.60;;;3.43;;
75772;SDS011;64381;0.000;0.000;2023-02-28T08:23:55;5.13;;;3.60;;
75772;SDS011;64381;0.000;0.000;2023-02-28T08:26:20;5.10;;;3.30;;
75772;SDS011;64381;0.000;0.000;2023-02-28T08:28:45;4.70;;;3.37;;
75772;SDS011;64381;0.000;0.000;2023-02-28T08:31:12;4.30;;;3.37;;
75772;SDS011;64381;0.000;0.000;2023-02-28T08:33:40;4.95;;;3.60;;
75772;SDS011;64381;0.000;0.000;2023-02-28T08:36:05;4.83;;;3.40;;
75772;SDS011;64381;0.000;0.000;2023-02-28T08:38:32;4.63;;;3.33;;
75772;SDS011;64381;0.000;0.000;2023-02-28T08:41:01;5.33;;;3.60;;
75772;SDS011;64381;0.000;0.000;2023-02-28T08:43:29;4.40;;;3.30;;
75772;SDS011;64381;0.000;0.000;2023-02-28T08:45:55;4.50;;;3.37;;
75772;SDS011;64381;0.000;0.000;2023-02-28T08:48:21;6.05;;;3.33;;
75772;SDS011;64381;0.000;0.000;2023-02-28T08:50:59;4.57;;;2.97;;
75772;SDS011;64381;0.000;0.000;2023-02-28T08:53:24;5.38;;;3.38;;
75772;SDS011;64381;0.000;0.000;2023-02-28T08:55:59;4.80;;;3.30;;
75772;SDS011;64381;0.000;0.000;2023-02-28T08:58:27;5.90;;;3.28;;
75772;SDS011;64381;0.000;0.000;2023-02-28T09:00:52;4.83;;;3.40;;
75772;SDS011;64381;0.000;0.000;2023-02-28T09:03:18;4.55;;;3.28;;
75772;SDS011;64381;0.000;0.000;2023-02-28T09:05:56;4.80;;;3.50;;
75772;SDS011;64381;0.000;0.000;2023-02-28T09:08:23;4.60;;;3.28;;
75772;SDS011;64381;0.000;0.000;2023-02-28T09:10:49;4.55;;;3.50;;
75772;SDS011;64381;0.000;0.000;2023-02-28T09:13:15;4.03;;;2.97;;
75772;SDS011;64381;0.000;0.000;2023-02-28T09:15:40;4.40;;;2.93;;
75772;SDS011;64381;0.000;0.000;2023-02-28T09:18:05;4.37;;;3.20;;
75772;SDS011;64381;0.000;0.000;2023-02-28T09:20:31;5.07;;;3.23;;
75772;SDS011;64381;0.000;0.000;2023-02-28T09:22:56;4.30;;;3.20;;
75772;SDS011;64381;0.000;0.000;2023-02-28T09:25:21;5.33;;;3.20;;
75772;SDS011;64381;0.000;0.000;2023-02-28T09:27:46;4.67;;;3.37;;
75772;SDS011;64381;0.000;0.000;2023-02-28T09:30:12;4.53;;;3.00;;
75772;SDS011;64381;0.000;0.000;2023-02-28T09:32:37;4.68;;;3.20;;
75772;SDS011;64381;0.000;0.000;2023-02-28T09:35:03;4.67;;;3.10;;
75772;SDS011;64381;0.000;0.000;2023-02-28T09:37:28;4.60;;;3.30;;
75772;SDS011;64381;0.000;0.000;2023-02-28T09:39:54;4.93;;;3.10;;
75772;SDS011;64381;0.000;0.000;2023-02-28T09:42:21;4.20;;;3.30;;
75772;SDS011;64381;0.000;0.000;2023-02-28T09:44:49;4.85;;;3.20;;
75772;SDS011;64381;0.000;0.000;2023-02-28T09:49:47;4.40;;;3.40;;
75772;SDS011;64381;0.000;0.000;2023-02-28T09:52:17;4.13;;;2.93;;
75772;SDS011;64381;0.000;0.000;2023-02-28T09:54:45;5.72;;;3.40;;
75772;SDS011;64381;0.000;0.000;2023-02-28T09:59:53;4.87;;;3.23;;
75772;SDS011;64381;0.000;0.000;2023-02-28T10:05:24;4.47;;;3.20;;
75772;SDS011;64381;0.000;0.000;2023-02-28T10:13:02;4.82;;;3.50;;
75772;SDS011;64381;0.000;0.000;2023-02-28T10:15:32;4.20;;;2.93;;
75772;SDS011;64381;0.000;0.000;2023-02-28T10:18:00;4.80;;;3.00;;
75772;SDS011;64381;0.000;0.000;2023-02-28T10:20:30;4.65;;;3.17;;
75772;SDS011;64381;0.000;0.000;2023-02-28T10:25:29;4.78;;;3.38;;
75772;SDS011;64381;0.000;0.000;2023-02-28T10:27:57;4.40;;;3.00;;
75772;SDS011;64381;0.000;0.000;2023-02-28T10:30:42;4.60;;;3.17;;
75772;SDS011;64381;0.000;0.000;2023-02-28T10:33:14;4.35;;;2.85;;
75772;SDS011;64381;0.000;0.000;2023-02-28T10:35:51;4.90;;;3.00;;
75772;SDS011;64381;0.000;0.000;2023-02-28T10:38:18;4.82;;;3.10;;
75772;SDS011;64381;0.000;0.000;2023-02-28T10:40:49;5.60;;;3.50;;
75772;SDS011;64381;0.000;0.000;2023-02-28T10:45:53;4.40;;;3.30;;
75772;SDS011;64381;0.000;0.000;2023-02-28T10:55:56;4.20;;;2.72;;
75772;SDS011;64381;0.000;0.000;2023-02-28T10:58:27;4.32;;;2.97;;
75772;SDS011;64381;0.000;0.000;2023-02-28T11:01:14;4.30;;;3.00;;
75772;SDS011;64381;0.000;0.000;2023-02-28T11:03:41;4.63;;;3.13;;
75772;SDS011;64381;0.000;0.000;2023-02-28T11:06:07;4.53;;;3.23;;
75772;SDS011;64381;0.000;0.000;2023-02-28T11:08:43;5.28;;;3.10;;
75772;SDS011;64381;0.000;0.000;2023-02-28T11:11:11;4.78;;;3.15;;
75772;SDS011;64381;0.000;0.000;2023-02-28T11:13:37;5.07;;;3.30;;
75772;SDS011;64381;0.000;0.000;2023-02-28T11:16:03;4.83;;;3.10;;
75772;SDS011;64381;0.000;0.000;2023-02-28T11:18:33;4.78;;;3.10;;
75772;SDS011;64381;0.000;0.000;2023-02-28T11:21:16;4.30;;;3.13;;
75772;SDS011;64381;0.000;0.000;2023-02-28T11:23:46;5.43;;;3.10;;
75772;SDS011;64381;0.000;0.000;2023-02-28T11:26:14;4.68;;;2.95;;
75772;SDS011;64381;0.000;0.000;2023-02-28T11:28:40;4.50;;;2.90;;
75772;SDS011;64381;0.000;0.000;2023-02-28T11:36:09;4.67;;;3.03;;
75772;SDS011;64381;0.000;0.000;2023-02-28T11:38:37;4.72;;;3.33;;
75772;SDS011;64381;0.000;0.000;2023-02-28T11:43:53;5.40;;;3.25;;
75772;SDS011;64381;0.000;0.000;2023-02-28T11:46:50;4.83;;;3.27;;
75772;SDS011;64381;0.000;0.000;2023-02-28T11:52:16;5.40;;;3.22;;
75772;SDS011;64381;0.000;0.000;2023-02-28T12:08:26;4.90;;;3.30;;
75772;SDS011;64381;0.000;0.000;2023-02-28T12:14:01;5.18;;;3.20;;
75772;SDS011;64381;0.000;0.000;2023-02-28T12:19:25;4.72;;;3.20;;
75772;SDS011;64381;0.000;0.000;2023-02-28T12:22:16;4.65;;;3.10;;
75772;SDS011;64381;0.000;0.000;2023-02-28T12:27:46;4.88;;;3.15;;
75772;SDS011;64381;0.000;0.000;2023-02-28T12:30:19;5.50;;;3.50;;
75772;SDS011;64381;0.000;0.000;2023-02-28T12:32:47;4.82;;;3.33;;
75772;SDS011;64381;0.000;0.000;2023-02-28T12:35:28;4.75;;;3.20;;
75772;SDS011;64381;0.000;0.000;2023-02-28T12:38:02;5.18;;;3.45;;
75772;SDS011;64381;0.000;0.000;2023-02-28T12:40:40;4.75;;;3.17;;
75772;SDS011;64381;0.000;0.000;2023-02-28T12:43:09;5.15;;;3.30;;
75772;SDS011;64381;0.000;0.000;2023-02-28T12:45:42;4.68;;;3.30;;
75772;SDS011;64381;0.000;0.000;2023-02-28T12:48:13;5.28;;;3.40;;
75772;SDS011;64381;0.000;0.000;2023-02-28T12:50:43;5.10;;;3.42;;
75772;SDS011;64381;0.000;0.000;2023-02-28T12:56:21;4.85;;;3.17;;
75772;SDS011;64381;0.000;0.000;2023-02-28T12:59:03;4.88;;;3.15;;
75772;SDS011;64381;0.000;0.000;2023-02-28T13:07:23;4.97;;;3.22;;
75772;SDS011;64381;0.000;0.000;2023-02-28T13:10:00;4.43;;;3.10;;
75772;SDS011;64381;0.000;0.000;2023-02-28T13:12:28;4.90;;;3.20;;
75772;SDS011;64381;0.000;0.000;2023-02-28T13:15:07;4.80;;;3.07;;
75772;SDS011;64381;0.000;0.000;2023-02-28T13:17:41;4.55;;;3.15;;
75772;SDS011;64381;0.000;0.000;2023-02-28T13:20:14;4.83;;;3.30;;
75772;SDS011;64381;0.000;0.000;2023-02-28T13:22:43;4.90;;;2.92;;
75772;SDS011;64381;0.000;0.000;2023-02-28T13:27:47;4.73;;;3.20;;
75772;SDS011;64381;0.000;0.000;2023-02-28T13:33:34;4.93;;;3.17;;
75772;SDS011;64381;0.000;0.000;2023-02-28T13:36:12;4.70;;;3.13;;
75772;SDS011;64381;0.000;0.000;2023-02-28T13:38:53;4.38;;;2.92;;
75772;SDS011;64381;0.000;0.000;2023-02-28T13:44:01;4.45;;;3.03;;
75772;SDS011;64381;0.000;0.000;2023-02-28T13:46:31;5.32;;;3.50;;
75772;SDS011;64381;0.000;0.000;2023-02-28T14:00:05;5.13;;;3.20;;
75772;SDS011;64381;0.000;0.000;2023-02-28T14:02:48;5.07;;;3.17;;
75772;SDS011;64381;0.000;0.000;2023-02-28T14:05:31;4.70;;;3.08;;
75772;SDS011;64381;0.000;0.000;2023-02-28T14:07:59;4.38;;;3.25;;
75772;SDS011;64381;0.000;0.000;2023-02-28T14:10:30;4.30;;;3.00;;
75772;SDS011;64381;0.000;0.000;2023-02-28T14:20:49;5.82;;;3.20;;
75772;SDS011;64381;0.000;0.000;2023-02-28T14:23:22;5.03;;;3.00;;
75772;SDS011;64381;0.000;0.000;2023-02-28T14:26:03;5.65;;;3.60;;
75772;SDS011;64381;0.000;0.000;2023-02-28T14:31:25;4.93;;;3.30;;
75772;SDS011;64381;0.000;0.000;2023-02-28T14:33:59;4.68;;;3.30;;
75772;SDS011;64381;0.000;0.000;2023-02-28T14:36:57;5.53;;;3.40;;
75772;SDS011;64381;0.000;0.000;2023-02-28T14:39:26;5.35;;;3.20;;
75772;SDS011;64381;0.000;0.000;2023-02-28T14:41:53;5.50;;;3.20;;
75772;SDS011;64381;0.000;0.000;2023-02-28T14:44:19;5.13;;;3.57;;
75772;SDS011;64381;0.000;0.000;2023-02-28T14:46:47;5.50;;;3.08;;
75772;SDS011;64381;0.000;0.000;2023-02-28T14:49:16;5.47;;;3.35;;
75772;SDS011;64381;0.000;0.000;2023-02-28T14:51:49;5.10;;;3.40;;
75772;SDS011;64381;0.000;0.000;2023-02-28T14:54:15;4.70;;;3.13;;
75772;SDS011;64381;0.000;0.000;2023-02-28T14:56:48;4.70;;;3.00;;
75772;SDS011;64381;0.000;0.000;2023-02-28T14:59:56;4.70;;;3.10;;
75772;SDS011;64381;0.000;0.000;2023-02-28T15:02:16;5.75;;;3.30;;
75772;SDS011;64381;0.000;0.000;2023-02-28T15:04:56;4.90;;;3.10;;
75772;SDS011;64381;0.000;0.000;2023-02-28T15:07:24;4.88;;;3.10;;
75772;SDS011;64381;0.000;0.000;2023-02-28T15:09:50;5.13;;;3.10;;
75772;SDS011;64381;0.000;0.000;2023-02-28T15:12:55;5.50;;;3.30;;
75772;SDS011;64381;0.000;0.000;2023-02-28T15:15:21;5.53;;;3.28;;
75772;SDS011;64381;0.000;0.000;2023-02-28T15:17:51;4.35;;;2.80;;
75772;SDS011;64381;0.000;0.000;2023-02-28T15:20:21;5.00;;;3.00;;
75772;SDS011;64381;0.000;0.000;2023-02-28T15:22:49;4.70;;;3.35;;
75772;SDS011;64381;0.000;0.000;2023-02-28T15:25:18;5.22;;;3.10;;
75772;SDS011;64381;0.000;0.000;2023-02-28T15:27:50;4.75;;;3.10;;
75772;SDS011;64381;0.000;0.000;2023-02-28T15:30:25;5.57;;;3.30;;
75772;SDS011;64381;0.000;0.000;2023-02-28T15:33:02;4.80;;;3.10;;
75772;SDS011;64381;0.000;0.000;2023-02-28T15:35:31;4.78;;;3.17;;
75772;SDS011;64381;0.000;0.000;2023-02-28T15:40:26;5.43;;;3.40;;
75772;SDS011;64381;0.000;0.000;2023-02-28T15:42:59;4.65;;;3.25;;
75772;SDS011;64381;0.000;0.000;2023-02-28T15:46:07;5.07;;;3.28;;
75772;SDS011;64381;0.000;0.000;2023-02-28T15:48:54;5.47;;;3.17;;
75772;SDS011;64381;0.000;0.000;2023-02-28T15:51:24;4.70;;;2.97;;
75772;SDS011;64381;0.000;0.000;2023-02-28T15:54:07;5.40;;;2.73;;
75772;SDS011;64381;0.000;0.000;2023-02-28T15:56:43;5.30;;;3.38;;
75772;SDS011;64381;0.000;0.000;2023-02-28T15:59:17;5.22;;;3.08;;
75772;SDS011;64381;0.000;0.000;2023-02-28T16:01:45;4.53;;;2.95;;
75772;SDS011;64381;0.000;0.000;2023-02-28T16:04:17;4.87;;;3.40;;
75772;SDS011;64381;0.000;0.000;2023-02-28T16:09:24;5.20;;;3.28;;
75772;SDS011;64381;0.000;0.000;2023-02-28T16:11:50;5.30;;;2.80;;
75772;SDS011;64381;0.000;0.000;2023-02-28T16:14:20;5.40;;;3.05;;
75772;SDS011;64381;0.000;0.000;2023-02-28T16:16:48;5.00;;;3.13;;
75772;SDS011;64381;0.000;0.000;2023-02-28T16:19:15;5.10;;;3.03;;
75772;SDS011;64381;0.000;0.000;2023-02-28T16:21:40;6.37;;;3.50;;
75772;SDS011;64381;0.000;0.000;2023-02-28T16:24:06;4.70;;;2.97;;
75772;SDS011;64381;0.000;0.000;2023-02-28T16:26:31;4.88;;;2.95;;
75772;SDS011;64381;0.000;0.000;2023-02-28T16:28:57;5.60;;;3.23;;
75772;SDS011;64381;0.000;0.000;2023-02-28T16:31:22;5.17;;;3.20;;
75772;SDS011;64381;0.000;0.000;2023-02-28T16:33:47;4.50;;;2.90;;
75772;SDS011;64381;0.000;0.000;2023-02-28T16:36:14;4.80;;;3.00;;
75772;SDS011;64381;0.000;0.000;2023-02-28T16:38:41;4.38;;;2.92;;
75772;SDS011;64381;0.000;0.000;2023-02-28T16:41:06;4.50;;;2.93;;
75772;SDS011;64381;0.000;0.000;2023-02-28T16:43:31;4.47;;;2.70;;
75772;SDS011;64381;0.000;0.000;2023-02-28T16:45:56;4.50;;;2.93;;
75772;SDS011;64381;0.000;0.000;2023-02-28T16:48:22;5.00;;;3.10;;
75772;SDS011;64381;0.000;0.000;2023-02-28T16:50:48;4.77;;;3.03;;
75772;SDS011;64381;0.000;0.000;2023-02-28T16:53:13;4.77;;;2.97;;
75772;SDS011;64381;0.000;0.000;2023-02-28T16:55:38;5.53;;;3.20;;
75772;SDS011;64381;0.000;0.000;2023-02-28T16:58:04;5.27;;;3.30;;
75772;SDS011;64381;0.000;0.000;2023-02-28T17:00:29;5.17;;;2.90;;
75772;SDS011;64381;0.000;0.000;2023-02-28T17:02:56;5.03;;;2.93;;
75772;SDS011;64381;0.000;0.000;2023-02-28T17:05:21;5.15;;;3.33;;
75772;SDS011;64381;0.000;0.000;2023-02-28T17:07:48;5.83;;;3.20;;
75772;SDS011;64381;0.000;0.000;2023-02-28T17:12:46;4.60;;;2.90;;
75772;SDS011;64381;0.000;0.000;2023-02-28T17:15:12;5.10;;;3.07;;
75772;SDS011;64381;0.000;0.000;2023-02-28T17:17:39;5.35;;;3.30;;
75772;SDS011;64381;0.000;0.000;2023-02-28T17:20:05;4.70;;;2.90;;
75772;SDS011;64381;0.000;0.000;2023-02-28T17:22:32;5.03;;;2.95;;
75772;SDS011;64381;0.000;0.000;2023-02-28T17:24:57;5.13;;;2.93;;
75772;SDS011;64381;0.000;0.000;2023-02-28T17:27:23;4.60;;;2.90;;
75772;SDS011;64381;0.000;0.000;2023-02-28T17:29:48;4.77;;;2.80;;
75772;SDS011;64381;0.000;0.000;2023-02-28T17:32:13;4.60;;;2.87;;
75772;SDS011;64381;0.000;0.000;2023-02-28T17:34:38;4.60;;;2.87;;
75772;SDS011;64381;0.000;0.000;2023-02-28T17:37:04;5.57;;;3.10;;
75772;SDS011;64381;0.000;0.000;2023-02-28T17:39:29;5.00;;;2.93;;